Time;durP1;ratioP1;P1;durP2;ratioP2;P2;SDS_P1;SDS_P2;PMS_P1;PMS_P2;Temp;Humidity;BMP_temperature;BMP_pressure;BME280_temperature;BME280_humidity;BME280_pressure;Samples;Min_cycle;Max_cycle;Signal;HPM_P1;HPM_P2
2021/04/11 00:09:20;;;;;;;12.55;9.48;;;;;;;18.17;38.79;100756.13;31088568;28;20045;-59
2021/04/11 00:24:21;;;;;;;11.10;8.63;;;;;;;18.19;39.20;100740.22;31057311;28;20046;-61
2021/04/11 00:39:22;;;;;;;11.13;8.23;;;;;;;18.19;39.34;100713.94;31103225;28;20304;-59
2021/04/11 00:54:23;;;;;;;8.53;7.40;;;;;;;18.14;39.67;100695.91;31217503;28;20053;-61
2021/04/11 01:09:25;;;;;;;9.30;6.87;;;;;;;18.13;39.91;100680.22;31225385;28;20296;-61
2021/04/11 01:24:40;;;;;;;11.07;7.63;;;;;;;18.07;40.09;100671.03;31197218;28;20374;-61
2021/04/11 01:39:42;;;;;;;9.48;6.88;;;;;;;18.04;40.87;100657.31;31190419;28;20042;-59
2021/04/11 01:54:43;;;;;;;9.18;7.05;;;;;;;17.99;41.64;100636.66;31210131;28;20030;-61
2021/04/11 02:09:46;;;;;;;8.93;7.23;;;;;;;17.94;41.39;100608.09;31190952;28;20594;-61
2021/04/11 02:24:47;;;;;;;9.02;7.18;;;;;;;17.88;41.85;100584.13;31231857;28;20320;-61
2021/04/11 02:39:49;;;;;;;8.80;7.00;;;;;;;17.83;41.36;100573.97;31243332;28;20030;-60
2021/04/11 02:54:50;;;;;;;7.75;6.80;;;;;;;17.77;41.88;100550.78;31247272;28;21054;-59
2021/04/11 03:09:56;;;;;;;8.52;7.00;;;;;;;17.71;42.17;100519.78;31239151;28;20277;-60
2021/04/11 03:24:57;;;;;;;9.03;6.80;;;;;;;17.69;41.91;100512.00;31210964;28;20045;-58
2021/04/11 03:39:58;;;;;;;10.33;7.10;;;;;;;17.66;42.55;100507.03;31239397;28;20329;-59
2021/04/11 03:55:00;;;;;;;9.17;7.07;;;;;;;17.63;42.10;100514.31;31227036;28;20280;-59
2021/04/11 04:10:03;;;;;;;8.55;7.05;;;;;;;17.61;41.76;100479.44;31231571;28;20304;-60
2021/04/11 04:25:30;;;;;;;10.05;7.40;;;;;;;17.58;41.91;100472.63;31227578;28;20701;-60
2021/04/11 04:40:46;;;;;;;8.20;7.20;;;;;;;17.58;41.79;100483.16;31215798;28;20179;-60
2021/04/11 04:55:52;;;;;;;10.65;7.50;;;;;;;17.55;41.79;100481.63;31211671;28;20022;-61
2021/04/11 05:10:58;;;;;;;9.67;7.93;;;;;;;17.55;41.94;100483.41;31209157;28;20030;-61
2021/04/11 05:26:07;;;;;;;9.70;7.60;;;;;;;17.55;41.80;100468.47;31212174;28;20037;-60
2021/04/11 05:41:14;;;;;;;8.95;7.65;;;;;;;17.62;41.65;100460.09;31198416;28;20033;-61
2021/04/11 05:56:26;;;;;;;9.60;7.40;;;;;;;17.58;41.73;100443.72;31237922;28;20484;-60
2021/04/11 06:11:43;;;;;;;9.30;7.88;;;;;;;17.58;41.44;100431.41;31218266;28;20030;-61
2021/04/11 06:26:48;;;;;;;10.50;7.87;;;;;;;17.68;41.33;100410.44;31188974;28;20041;-61
2021/04/11 06:42:08;;;;;;;9.45;7.45;;;;;;;17.73;40.94;100410.91;31178183;28;20053;-59
2021/04/11 06:57:15;;;;;;;8.95;7.40;;;;;;;17.99;40.31;100390.28;31238140;28;20108;-60
2021/04/11 07:12:35;;;;;;;;;;;;;;;18.17;40.11;100381.78;31174271;28;20038;-61
2021/04/11 07:27:49;;;;;;;11.05;8.02;;;;;;;18.20;39.90;100386.75;31136637;28;20321;-60
2021/04/11 07:43:07;;;;;;;11.02;8.25;;;;;;;18.26;39.78;100382.78;31194592;28;20397;-59
2021/04/11 07:58:11;;;;;;;10.82;8.73;;;;;;;18.60;40.57;100393.78;31218667;28;20516;-60
2021/04/11 08:13:42;;;;;;;10.65;8.23;;;;;;;18.84;40.11;100372.34;31124388;28;20705;-58
2021/04/11 08:29:11;;;;;;;11.27;8.90;;;;;;;19.07;39.68;100369.41;31135263;28;20037;-57
2021/04/11 08:44:27;;;;;;;9.82;8.27;;;;;;;18.98;39.93;100371.91;31141519;28;20030;-54
2021/04/11 08:59:54;;;;;;;10.48;8.13;;;;;;;18.89;40.40;100356.13;31145226;28;20041;-55
2021/04/11 09:15:07;;;;;;;11.13;8.27;;;;;;;19.04;40.09;100338.94;31029441;28;20077;-56
2021/04/11 09:30:23;;;;;;;14.05;8.65;;;;;;;19.76;38.74;100326.13;31059044;28;20045;-57
2021/04/11 09:45:30;;;;;;;9.53;8.13;;;;;;;19.40;39.37;100352.28;31095341;28;20080;-57
2021/04/11 10:00:32;;;;;;;11.20;7.73;;;;;;;18.87;40.51;100339.63;31044790;28;20070;-56
2021/04/11 10:15:43;;;;;;;13.07;8.38;;;;;;;18.74;41.22;100330.19;31067381;28;20034;-59
2021/04/11 10:30:54;;;;;;;11.05;8.32;;;;;;;19.46;38.60;100309.56;31162244;28;20042;-58
2021/04/11 10:46:20;;;;;;;16.67;13.32;;;;;;;20.64;35.90;100298.22;31173445;28;20075;-59
2021/04/11 11:01:57;;;;;;;16.98;11.88;;;;;;;21.20;34.68;100287.38;31205772;28;20108;-59
2021/04/11 11:17:36;;;;;;;11.93;10.15;;;;;;;21.04;35.52;100282.81;31148074;28;20041;-58
2021/04/11 11:33:00;;;;;;;12.98;10.07;;;;;;;21.27;35.16;100285.75;31194884;28;20072;-54
2021/04/11 11:48:20;;;;;;;13.20;8.45;;;;;;;21.31;35.69;100280.00;31130189;28;20038;-56
2021/04/11 12:03:36;;;;;;;14.75;8.07;;;;;;;21.39;36.11;100260.69;31099630;28;20022;-57
2021/04/11 12:18:43;;;;;;;11.77;7.20;;;;;;;21.94;32.00;100259.44;31127911;28;20563;-58
2021/04/11 12:33:58;;;;;;;8.35;5.97;;;;;;;21.27;31.73;100260.16;31099702;28;20022;-56
2021/04/11 12:49:19;;;;;;;12.32;7.65;;;;;;;20.28;33.97;100242.75;31105716;28;20025;-57
2021/04/11 13:04:30;;;;;;;12.50;8.88;;;;;;;20.55;34.20;100237.50;31162621;28;20480;-58
2021/04/11 13:19:32;;;;;;;10.48;5.93;;;;;;;20.70;35.30;100238.66;31107596;28;20420;-58
2021/04/11 13:34:48;;;;;;;8.90;4.90;;;;;;;20.40;35.84;100242.53;31105367;28;20053;-58
2021/04/11 13:50:06;;;;;;;7.23;4.57;;;;;;;20.09;36.86;100227.91;31084722;28;20045;-58
2021/04/11 14:05:35;;;;;;;4.85;3.63;;;;;;;20.11;36.60;100227.75;31112537;28;20546;-57
2021/04/11 14:20:48;;;;;;;6.32;3.88;;;;;;;20.14;36.68;100209.00;31130672;28;20451;-59
2021/04/11 14:36:00;;;;;;;7.35;4.10;;;;;;;19.79;37.30;100215.91;31133971;28;20104;-58
2021/04/11 14:51:16;;;;;;;5.63;3.75;;;;;;;19.72;37.77;100216.63;31126411;28;20111;-58
2021/04/11 15:07:15;;;;;;;4.57;3.63;;;;;;;19.50;38.16;100212.59;31113893;28;20492;-57
2021/04/11 15:22:23;;;;;;;5.72;3.67;;;;;;;19.27;38.95;100209.50;31067344;28;20103;-59
2021/04/11 15:37:52;;;;;;;5.90;3.90;;;;;;;19.21;39.35;100201.19;31127414;28;20045;-57
2021/04/11 15:53:04;;;;;;;4.28;3.47;;;;;;;19.14;39.77;100210.66;31092532;28;20034;-58
2021/04/11 16:08:08;;;;;;;4.60;3.20;;;;;;;19.02;39.61;100211.81;31123801;28;20060;-57
2021/04/11 16:23:27;;;;;;;5.95;3.55;;;;;;;18.93;39.77;100200.31;31106028;28;20048;-57
2021/04/11 16:38:59;;;;;;;5.15;3.38;;;;;;;18.88;39.47;100230.72;31120808;28;20046;-58
2021/04/11 16:54:07;;;;;;;7.43;3.75;;;;;;;18.75;39.86;100234.44;31040300;28;20160;-59
2021/04/11 17:09:09;;;;;;;6.97;4.30;;;;;;;18.70;40.28;100235.84;31052717;28;20085;-58
2021/04/11 17:24:29;;;;;;;7.10;4.28;;;;;;;18.72;40.41;100239.97;31059811;28;20081;-59
2021/04/11 17:39:30;;;;;;;18.63;4.38;;;;;;;18.89;41.09;100267.41;31099657;28;20096;-56
2021/04/11 17:54:45;;;;;;;10.15;4.15;;;;;;;19.05;40.71;100327.41;31103487;28;20034;-58
2021/04/11 18:09:47;;;;;;;8.48;5.32;;;;;;;19.19;42.00;100369.09;31138209;28;20081;-59
2021/04/11 18:24:57;;;;;;;11.60;5.57;;;;;;;19.29;42.91;100453.44;31157111;28;20065;-61
2021/04/11 18:40:38;;;;;;;9.50;4.38;;;;;;;19.37;42.96;100502.78;31170527;28;20035;-59
2021/04/11 18:55:46;;;;;;;5.75;3.65;;;;;;;19.21;43.38;100519.97;31132788;28;20041;-59
2021/04/11 19:11:10;;;;;;;8.20;4.03;;;;;;;19.22;43.35;100539.28;31128546;28;20100;-61
2021/04/11 19:26:42;;;;;;;5.13;3.88;;;;;;;19.23;43.23;100573.38;31144449;28;20045;-58
2021/04/11 19:42:20;;;;;;;8.40;3.40;;;;;;;19.18;43.39;100638.00;31150801;28;20041;-61
2021/04/11 19:57:45;;;;;;;6.78;3.90;;;;;;;19.12;43.74;100665.69;31119557;28;20459;-61
2021/04/11 20:13:23;;;;;;;6.05;3.88;;;;;;;19.08;43.36;100652.94;31131452;28;20046;-57
2021/04/11 20:28:49;;;;;;;5.78;4.38;;;;;;;18.96;42.15;100663.56;31158326;28;20084;-60
2021/04/11 20:44:02;;;;;;;7.15;4.40;;;;;;;18.84;41.47;100678.63;31105899;28;20026;-58
2021/04/11 20:59:29;;;;;;;5.93;4.30;;;;;;;18.79;41.60;100706.31;31121970;28;20680;-58
2021/04/11 21:14:56;;;;;;;6.80;4.17;;;;;;;18.79;41.21;100740.56;31071140;28;20049;-57
2021/04/11 21:30:08;;;;;;;6.15;3.95;;;;;;;18.77;41.24;100769.63;31072030;28;20034;-59
2021/04/11 21:45:35;;;;;;;5.47;3.90;;;;;;;18.76;41.13;100790.78;31028587;28;20030;-57
2021/04/11 22:01:08;;;;;;;5.60;3.77;;;;;;;18.74;40.97;100834.88;30954226;28;20476;-58
2021/04/11 22:16:25;;;;;;;4.78;3.47;;;;;;;18.54;39.66;100882.09;31004231;28;20370;-61
2021/04/11 22:31:57;;;;;;;6.22;3.63;;;;;;;18.53;40.21;100912.00;30982077;28;20042;-60
2021/04/11 22:47:16;;;;;;;7.88;3.45;;;;;;;18.51;40.64;100942.00;30963430;28;20054;-60
2021/04/11 23:02:39;;;;;;;5.63;3.50;;;;;;;18.46;40.55;100952.91;30915937;28;20115;-60
2021/04/11 23:17:54;;;;;;;6.65;3.45;;;;;;;18.40;40.81;100958.69;30899256;28;20421;-61
2021/04/11 23:33:13;;;;;;;4.93;3.42;;;;;;;18.35;40.83;100979.28;30884903;28;20043;-61
2021/04/11 23:48:19;;;;;;;4.40;3.17;;;;;;;18.29;41.63;100995.53;30959189;28;20084;-62
